Time,TemperatureF,DewpointF,PressureIn,WindDirection,WindDirectionDegrees,WindSpeedMPH,WindSpeedGustMPH,Humidity,HourlyPrecipIn,Conditions,Clouds,dailyrainin,SolarRadiationWatts/m^2,SoftwareType,DateUTC
2013-09-19 00:03:00,67.6,63.9,29.70,East,98,0.0,1.0,88,0.00,,CLR,0.00,0.00,VWS V14.01,2013-09-19 05:03:00,
2013-09-19 00:08:00,67.5,63.8,29.70,East,98,0.0,1.0,88,0.00,,CLR,0.00,0.00,VWS V14.01,2013-09-19 05:08:00,
2013-09-19 00:13:00,67.6,63.9,29.70,East,98,0.0,1.0,88,0.00,,CLR,0.00,0.00,VWS V14.01,2013-09-19 05:13:00,
2013-09-19 00:18:00,67.6,63.9,29.70,East,98,0.0,1.0,88,0.00,,CLR,0.00,0.00,VWS V14.01,2013-09-19 05:18:00,
2013-09-19 00:23:00,67.5,63.8,29.70,East,98,0.0,1.0,88,0.00,,CLR,0.00,0.00,VWS V14.01,2013-09-19 05:23:00,
2013-09-19 00:28:00,67.6,63.9,29.70,East,98,0.0,1.0,88,0.00,,CLR,0.00,0.00,VWS V14.01,2013-09-19 05:28:00,
2013-09-19 00:33:00,67.5,63.8,29.70,East,98,0.0,1.0,88,0.00,,CLR,0.00,0.00,VWS V14.01,2013-09-19 05:33:00,
2013-09-19 00:38:00,67.5,63.8,29.70,East,98,0.0,1.0,88,0.00,,CLR,0.00,0.00,VWS V14.01,2013-09-19 05:38:00,
2013-09-19 00:43:00,67.5,63.8,29.70,East,94,0.0,1.0,88,0.00,,CLR,0.00,0.00,VWS V14.01,2013-09-19 05:43:00,
2013-09-19 00:48:00,67.5,63.8,29.70,East,94,0.0,1.0,88,0.00,,CLR,0.00,0.00,VWS V14.01,2013-09-19 05:48:00,
2013-09-19 00:53:00,67.4,63.7,29.70,East,94,0.0,1.0,88,0.00,,CLR,0.00,0.00,VWS V14.01,2013-09-19 05:53:00,
2013-09-19 00:58:00,67.3,63.6,29.70,East,94,0.0,1.0,88,0.00,,CLR,0.00,0.00,VWS V14.01,2013-09-19 05:58:00,
2013-09-19 01:03:00,67.3,63.6,29.70,East,94,0.0,1.0,88,0.00,,CLR,0.00,0.00,VWS V14.01,2013-09-19 06:03:00,
2013-09-19 01:08:00,67.2,63.5,29.70,East,94,0.0,1.0,88,0.00,,CLR,0.00,0.00,VWS V14.01,2013-09-19 06:08:00,
2013-09-19 01:13:00,67.2,63.5,29.70,East,94,0.0,1.0,88,0.00,,CLR,0.00,0.00,VWS V14.01,2013-09-19 06:13:00,
2013-09-19 01:18:00,67.1,63.4,29.71,East,94,0.0,1.0,88,0.00,,CLR,0.00,0.00,VWS V14.01,2013-09-19 06:18:00,
2013-09-19 01:23:00,67.1,63.4,29.71,East,94,0.0,1.0,88,0.00,,CLR,0.00,0.00,VWS V14.01,2013-09-19 06:23:00,
2013-09-19 01:28:00,67.1,63.4,29.70,East,94,0.0,1.0,88,0.00,,CLR,0.00,0.00,VWS V14.01,2013-09-19 06:28:00,
2013-09-19 01:33:00,67.1,63.1,29.71,East,94,0.0,1.0,87,0.00,,CLR,0.00,0.00,VWS V14.01,2013-09-19 06:33:00,
2013-09-19 01:38:00,67.1,63.1,29.71,East,94,0.0,1.0,87,0.00,,CLR,0.00,0.00,VWS V14.01,2013-09-19 06:38:00,
2013-09-19 01:43:00,67.1,63.1,29.70,East,94,0.0,1.0,87,0.00,,CLR,0.00,0.00,VWS V14.01,2013-09-19 06:43:00,
2013-09-19 01:48:00,67.1,63.1,29.70,East,94,0.0,1.0,87,0.00,,CLR,0.00,0.00,VWS V14.01,2013-09-19 06:48:00,
2013-09-19 01:53:00,67.1,63.1,29.70,East,94,0.0,1.0,87,0.00,,CLR,0.00,0.00,VWS V14.01,2013-09-19 06:53:00,
2013-09-19 01:58:00,67.1,63.1,29.71,East,94,0.0,1.0,87,0.00,,CLR,0.00,0.00,VWS V14.01,2013-09-19 06:58:00,
2013-09-19 02:03:00,67.0,63.0,29.71,East,94,0.0,0.0,87,0.00,,CLR,0.00,0.00,VWS V14.01,2013-09-19 07:03:00,
2013-09-19 02:08:00,67.0,63.0,29.71,East,94,0.0,1.0,87,0.00,,CLR,0.00,0.00,VWS V14.01,2013-09-19 07:08:00,
2013-09-19 02:13:00,67.0,63.0,29.71,East,94,0.0,1.0,87,0.00,,CLR,0.00,0.00,VWS V14.01,2013-09-19 07:13:00,
2013-09-19 02:18:00,67.0,63.0,29.72,East,94,0.0,1.0,87,0.00,,CLR,0.00,0.00,VWS V14.01,2013-09-19 07:18:00,
2013-09-19 02:23:00,67.1,63.1,29.72,East,94,0.0,1.0,87,0.00,,CLR,0.00,0.00,VWS V14.01,2013-09-19 07:23:00,
2013-09-19 02:28:00,67.0,63.0,29.72,East,94,0.0,1.0,87,0.00,,CLR,0.00,0.00,VWS V14.01,2013-09-19 07:28:00,
2013-09-19 02:33:00,67.1,63.1,29.72,East,94,0.0,1.0,87,0.00,,CLR,0.00,0.00,VWS V14.01,2013-09-19 07:33:00,
2013-09-19 02:38:00,67.1,63.1,29.72,East,94,0.0,1.0,87,0.00,,CLR,0.00,0.00,VWS V14.01,2013-09-19 07:38:00,
2013-09-19 02:43:00,67.0,63.0,29.72,East,94,0.0,1.0,87,0.00,,CLR,0.00,0.00,VWS V14.01,2013-09-19 07:43:00,
2013-09-19 02:48:00,67.0,63.0,29.72,East,94,0.0,1.0,87,0.00,,CLR,0.00,0.00,VWS V14.01,2013-09-19 07:48:00,
2013-09-19 02:53:00,67.0,63.0,29.71,East,94,0.0,1.0,87,0.00,,CLR,0.00,0.00,VWS V14.01,2013-09-19 07:53:00,
2013-09-19 02:58:00,67.0,63.0,29.71,East,94,0.0,1.0,87,0.00,,CLR,0.00,0.00,VWS V14.01,2013-09-19 07:58:00,
2013-09-19 03:03:00,67.0,63.0,29.71,East,94,0.0,0.0,87,0.00,,CLR,0.00,0.00,VWS V14.01,2013-09-19 08:03:00,
2013-09-19 03:08:00,67.0,63.0,29.71,East,94,0.0,0.0,87,0.00,,CLR,0.00,0.00,VWS V14.01,2013-09-19 08:08:00,
2013-09-19 03:13:00,66.9,62.9,29.71,East,94,0.0,0.0,87,0.00,,CLR,0.00,0.00,VWS V14.01,2013-09-19 08:13:00,
2013-09-19 03:18:00,66.8,62.8,29.70,East,94,0.0,0.0,87,0.00,,CLR,0.00,0.00,VWS V14.01,2013-09-19 08:18:00,
2013-09-19 03:23:00,66.8,62.8,29.70,East,94,0.0,1.0,87,0.00,,SCT060,0.00,0.00,VWS V14.01,2013-09-19 08:23:00,
2013-09-19 03:28:00,66.9,62.9,29.70,East,94,0.0,1.0,87,0.00,,SCT060,0.00,0.00,VWS V14.01,2013-09-19 08:28:00,
2013-09-19 03:33:00,67.0,63.0,29.70,East,94,0.0,0.0,87,0.00,,SCT060,0.00,0.00,VWS V14.01,2013-09-19 08:33:00,
2013-09-19 03:38:00,67.0,63.0,29.69,East,95,0.0,2.0,87,0.00,,SCT060,0.00,0.00,VWS V14.01,2013-09-19 08:38:00,
2013-09-19 03:43:00,67.0,63.0,29.69,East,95,0.0,2.0,87,0.00,,SCT060,0.00,0.00,VWS V14.01,2013-09-19 08:43:00,
2013-09-19 03:48:00,67.1,63.1,29.68,East,95,0.0,2.0,87,0.00,,SCT060,0.00,0.00,VWS V14.01,2013-09-19 08:48:00,
2013-09-19 03:53:00,67.1,63.1,29.68,East,95,0.0,2.0,87,0.00,,SCT060,0.00,0.00,VWS V14.01,2013-09-19 08:53:00,
2013-09-19 03:58:00,67.2,63.2,29.68,East,95,0.0,2.0,87,0.00,,SCT060,0.00,0.00,VWS V14.01,2013-09-19 08:58:00,
2013-09-19 04:03:00,67.3,63.3,29.67,East,95,0.0,1.0,87,0.00,,CLR,0.00,0.00,VWS V14.01,2013-09-19 09:03:00,
2013-09-19 04:08:00,67.3,63.3,29.67,East,95,0.0,1.0,87,0.00,,CLR,0.00,0.00,VWS V14.01,2013-09-19 09:08:00,
2013-09-19 04:13:00,67.4,63.4,29.67,East,95,0.0,1.0,87,0.00,,CLR,0.00,0.00,VWS V14.01,2013-09-19 09:13:00,
2013-09-19 04:18:00,67.5,63.5,29.67,SSE,168,0.0,1.0,87,0.00,,CLR,0.00,0.00,VWS V14.01,2013-09-19 09:18:00,
2013-09-19 04:23:00,67.6,63.6,29.66,SSE,168,1.0,1.0,87,0.00,,CLR,0.00,0.00,VWS V14.01,2013-09-19 09:23:00,
2013-09-19 04:28:00,67.7,63.7,29.66,SE,131,0.0,2.0,87,0.00,,CLR,0.00,0.00,VWS V14.01,2013-09-19 09:28:00,
2013-09-19 04:33:00,67.7,63.7,29.66,SE,132,0.0,2.0,87,0.00,,CLR,0.00,0.00,VWS V14.01,2013-09-19 09:33:00,
2013-09-19 04:38:00,67.7,63.7,29.67,SE,132,0.0,2.0,87,0.00,,CLR,0.00,0.00,VWS V14.01,2013-09-19 09:38:00,
2013-09-19 04:43:00,67.7,63.7,29.67,SE,132,0.0,2.0,87,0.00,,CLR,0.00,0.00,VWS V14.01,2013-09-19 09:43:00,
2013-09-19 04:48:00,67.7,63.7,29.67,SE,132,0.0,2.0,87,0.00,,CLR,0.00,0.00,VWS V14.01,2013-09-19 09:48:00,
2013-09-19 04:53:00,67.7,63.7,29.67,SSE,167,0.0,2.0,87,0.00,,CLR,0.00,0.00,VWS V14.01,2013-09-19 09:53:00,
2013-09-19 04:58:00,67.7,63.7,29.67,SSE,167,0.0,2.0,87,0.00,,CLR,0.00,0.00,VWS V14.01,2013-09-19 09:58:00,
2013-09-19 05:03:00,67.7,63.7,29.67,SSE,167,1.0,1.0,87,0.00,,CLR,0.00,0.00,VWS V14.01,2013-09-19 10:03:00,
2013-09-19 05:08:00,67.7,63.7,29.66,SE,144,0.0,2.0,87,0.00,,CLR,0.00,0.00,VWS V14.01,2013-09-19 10:08:00,
2013-09-19 05:13:00,67.8,63.8,29.67,SE,144,1.0,2.0,87,0.00,,CLR,0.00,0.00,VWS V14.01,2013-09-19 10:13:00,
2013-09-19 05:18:00,67.9,63.9,29.66,SE,144,1.0,2.0,87,0.00,,CLR,0.00,0.00,VWS V14.01,2013-09-19 10:18:00,
2013-09-19 05:23:00,67.8,63.8,29.67,SE,144,0.0,2.0,87,0.00,,CLR,0.00,0.00,VWS V14.01,2013-09-19 10:23:00,
2013-09-19 05:28:00,67.8,63.8,29.67,SE,144,0.0,2.0,87,0.00,,CLR,0.00,0.00,VWS V14.01,2013-09-19 10:28:00,
2013-09-19 05:33:00,67.8,63.8,29.67,SE,144,0.0,1.0,87,0.00,,CLR,0.00,0.00,VWS V14.01,2013-09-19 10:33:00,
2013-09-19 05:38:00,67.7,63.7,29.67,SE,144,0.0,1.0,87,0.00,,CLR,0.00,0.00,VWS V14.01,2013-09-19 10:38:00,
2013-09-19 05:43:00,67.7,63.7,29.67,SE,144,0.0,2.0,87,0.00,,CLR,0.00,0.00,VWS V14.01,2013-09-19 10:43:00,
2013-09-19 05:48:00,67.8,63.8,29.67,NNE,27,0.0,2.0,87,0.00,,CLR,0.00,0.00,VWS V14.01,2013-09-19 10:48:00,
2013-09-19 05:53:00,67.9,63.9,29.67,NNE,27,0.0,2.0,87,0.00,,CLR,0.00,0.00,VWS V14.01,2013-09-19 10:53:00,
2013-09-19 05:58:00,67.8,63.8,29.68,NNE,28,0.0,2.0,87,0.00,,CLR,0.00,0.00,VWS V14.01,2013-09-19 10:58:00,
2013-09-19 06:03:00,67.9,63.9,29.67,NE,50,0.0,2.0,87,0.00,,CLR,0.00,0.00,VWS V14.01,2013-09-19 11:03:00,
2013-09-19 06:08:00,67.9,63.9,29.67,ESE,107,1.0,4.0,87,0.00,,CLR,0.00,0.00,VWS V14.01,2013-09-19 11:08:00,
2013-09-19 06:13:00,68.0,64.0,29.67,ESE,107,0.0,4.0,87,0.00,,CLR,0.00,0.00,VWS V14.01,2013-09-19 11:13:00,
2013-09-19 06:18:00,68.0,64.0,29.67,ESE,107,1.0,4.0,87,0.00,,SCT065,0.00,0.00,VWS V14.01,2013-09-19 11:18:00,
2013-09-19 06:23:00,68.1,64.1,29.67,SE,126,0.0,4.0,87,0.00,,SCT065,0.00,0.00,VWS V14.01,2013-09-19 11:23:00,
2013-09-19 06:28:00,68.1,64.1,29.68,SE,126,0.0,0.0,87,0.00,,SCT065,0.00,0.00,VWS V14.01,2013-09-19 11:28:00,
2013-09-19 06:33:00,68.1,64.1,29.67,SE,126,2.0,2.0,87,0.00,,SCT065,0.00,0.00,VWS V14.01,2013-09-19 11:33:00,
2013-09-19 06:38:00,68.2,64.2,29.67,SE,126,0.0,2.0,87,0.00,,SCT065,0.00,0.00,VWS V14.01,2013-09-19 11:38:00,
2013-09-19 06:43:00,68.2,64.2,29.68,SE,126,0.0,2.0,87,0.00,,SCT065,0.00,0.00,VWS V14.01,2013-09-19 11:43:00,
2013-09-19 06:48:00,68.2,64.2,29.68,ESE,122,0.0,2.0,87,0.00,,SCT065,0.00,0.00,VWS V14.01,2013-09-19 11:48:00,
2013-09-19 06:53:00,68.2,64.2,29.68,ESE,122,0.0,2.0,87,0.00,,SCT065,0.00,0.00,VWS V14.01,2013-09-19 11:53:00,
2013-09-19 06:58:00,68.1,64.1,29.68,ESE,122,0.0,1.0,87,0.00,,SCT065,0.00,0.00,VWS V14.01,2013-09-19 11:58:00,
2013-09-19 07:04:00,68.2,64.2,29.68,ESE,122,1.0,2.0,87,0.00,,SCT065,0.00,0.00,VWS V14.01,2013-09-19 12:04:00,
2013-09-19 07:09:00,68.3,64.3,29.68,ESE,122,1.0,2.0,87,0.00,,SCT065,0.00,5.00,VWS V14.01,2013-09-19 12:09:00,
2013-09-19 07:14:00,68.4,64.4,29.68,ESE,122,0.0,2.0,87,0.00,,SCT065,0.00,9.00,VWS V14.01,2013-09-19 12:14:00,
2013-09-19 07:19:00,68.4,64.4,29.68,ESE,122,0.0,2.0,87,0.00,,BKN065,0.00,12.00,VWS V14.01,2013-09-19 12:19:00,
2013-09-19 07:24:00,68.4,64.4,29.68,ESE,122,0.0,2.0,87,0.00,,BKN065,0.00,14.00,VWS V14.01,2013-09-19 12:24:00,
2013-09-19 07:29:00,68.5,64.5,29.68,ESE,122,1.0,2.0,87,0.00,,BKN065,0.00,19.00,VWS V14.01,2013-09-19 12:29:00,
2013-09-19 07:34:00,68.5,64.5,29.68,ESE,122,2.0,2.0,87,0.00,,BKN065,0.00,23.00,VWS V14.01,2013-09-19 12:34:00,
2013-09-19 07:39:00,68.5,64.5,29.68,ESE,105,1.0,3.0,87,0.00,,BKN065,0.00,28.00,VWS V14.01,2013-09-19 12:39:00,
2013-09-19 07:44:00,68.5,64.5,29.68,ESE,103,2.0,3.0,87,0.00,,BKN065,0.00,33.00,VWS V14.01,2013-09-19 12:44:00,
2013-09-19 07:49:00,68.6,64.6,29.67,ESE,103,0.0,3.0,87,0.00,,BKN065,0.00,42.00,VWS V14.01,2013-09-19 12:49:00,
2013-09-19 07:54:00,68.8,64.8,29.67,East,95,0.0,3.0,87,0.00,,BKN065,0.00,51.00,VWS V14.01,2013-09-19 12:54:00,
2013-09-19 07:59:00,68.9,64.9,29.67,East,95,1.0,1.0,87,0.00,,BKN065,0.00,65.00,VWS V14.01,2013-09-19 12:59:00,
2013-09-19 08:04:00,69.0,65.0,29.67,East,93,0.0,2.0,87,0.00,,BKN065,0.00,76.00,VWS V14.01,2013-09-19 13:04:00,
2013-09-19 08:09:00,69.2,65.2,29.67,East,93,1.0,2.0,87,0.00,,BKN065,0.00,79.00,VWS V14.01,2013-09-19 13:09:00,
2013-09-19 08:14:00,69.3,65.3,29.67,East,93,1.0,2.0,87,0.00,,BKN065,0.00,81.00,VWS V14.01,2013-09-19 13:14:00,
2013-09-19 08:19:00,69.5,65.5,29.67,East,97,1.0,2.0,87,0.00,,CLR,0.00,90.00,VWS V14.01,2013-09-19 13:19:00,
2013-09-19 08:24:00,69.7,65.7,29.67,East,101,0.0,2.0,87,0.00,,CLR,0.00,81.00,VWS V14.01,2013-09-19 13:24:00,
2013-09-19 08:29:00,69.9,65.9,29.67,East,98,2.0,2.0,87,0.00,,CLR,0.00,74.00,VWS V14.01,2013-09-19 13:29:00,
2013-09-19 08:34:00,70.1,66.1,29.66,East,94,1.0,3.0,87,0.00,,CLR,0.00,70.00,VWS V14.01,2013-09-19 13:34:00,
2013-09-19 08:39:00,70.2,66.2,29.67,East,95,0.0,3.0,87,0.00,,CLR,0.00,65.00,VWS V14.01,2013-09-19 13:39:00,
2013-09-19 08:44:00,70.3,66.6,29.66,ENE,74,0.0,3.0,88,0.00,,CLR,0.00,58.00,VWS V14.01,2013-09-19 13:44:00,
2013-09-19 08:49:00,70.4,66.7,29.66,ENE,75,0.0,3.0,88,0.00,,CLR,0.00,58.00,VWS V14.01,2013-09-19 13:49:00,
2013-09-19 08:54:00,70.5,66.8,29.66,ENE,75,2.0,3.0,88,0.00,,CLR,0.00,53.00,VWS V14.01,2013-09-19 13:54:00,
2013-09-19 08:59:00,70.6,66.9,29.66,ENE,75,1.0,2.0,88,0.00,,CLR,0.00,58.00,VWS V14.01,2013-09-19 13:59:00,
2013-09-19 09:04:00,70.7,67.0,29.65,ESE,103,1.0,3.0,88,0.00,,CLR,0.00,91.00,VWS V14.01,2013-09-19 14:04:00,
2013-09-19 09:09:00,71.1,67.4,29.65,ESE,103,1.0,3.0,88,0.00,,CLR,0.00,109.00,VWS V14.01,2013-09-19 14:09:00,
2013-09-19 09:14:00,71.4,67.7,29.65,South,182,1.0,3.0,88,0.00,,CLR,0.00,128.00,VWS V14.01,2013-09-19 14:14:00,
2013-09-19 09:19:00,71.7,68.0,29.65,SSW,196,0.0,4.0,88,0.00,,CLR,0.00,132.00,VWS V14.01,2013-09-19 14:19:00,
2013-09-19 09:24:00,72.0,68.6,29.65,SSE,150,1.0,4.0,89,0.00,,CLR,0.00,123.00,VWS V14.01,2013-09-19 14:24:00,
2013-09-19 09:29:00,72.2,68.8,29.65,ESE,123,1.0,4.0,89,0.00,,CLR,0.00,146.00,VWS V14.01,2013-09-19 14:29:00,
2013-09-19 09:34:00,72.4,69.0,29.65,ESE,119,2.0,4.0,89,0.00,,CLR,0.00,181.00,VWS V14.01,2013-09-19 14:34:00,
2013-09-19 09:39:00,72.7,69.3,29.65,ESE,119,0.0,4.0,89,0.00,,CLR,0.00,172.00,VWS V14.01,2013-09-19 14:39:00,
2013-09-19 09:44:00,73.0,69.6,29.65,SE,140,1.0,4.0,89,0.00,,CLR,0.00,163.00,VWS V14.01,2013-09-19 14:44:00,
2013-09-19 09:49:00,73.3,69.9,29.65,SE,136,3.0,6.0,89,0.00,,CLR,0.00,192.00,VWS V14.01,2013-09-19 14:49:00,
2013-09-19 09:54:00,73.7,70.3,29.65,ESE,119,3.0,6.0,89,0.00,,CLR,0.00,153.00,VWS V14.01,2013-09-19 14:54:00,
2013-09-19 09:59:00,73.9,70.1,29.65,ESE,122,0.0,3.0,88,0.00,,CLR,0.00,144.00,VWS V14.01,2013-09-19 14:59:00,
2013-09-19 10:04:00,74.1,70.3,29.65,South,189,5.0,8.0,88,0.00,,CLR,0.00,149.00,VWS V14.01,2013-09-19 15:04:00,
2013-09-19 10:09:00,74.2,70.4,29.65,SE,127,0.0,8.0,88,0.00,,CLR,0.00,171.00,VWS V14.01,2013-09-19 15:09:00,
2013-09-19 10:14:00,74.4,70.6,29.65,SSE,156,1.0,8.0,88,0.00,,CLR,0.00,146.00,VWS V14.01,2013-09-19 15:14:00,
2013-09-19 10:19:00,74.7,70.6,29.65,ESE,105,1.0,8.0,87,0.00,,CLR,0.00,125.00,VWS V14.01,2013-09-19 15:19:00,
2013-09-19 10:24:00,74.9,70.8,29.65,SE,142,3.0,13.0,87,0.00,,CLR,0.00,120.00,VWS V14.01,2013-09-19 15:24:00,
2013-09-19 10:29:00,75.1,70.6,29.65,South,185,1.0,2.0,86,0.00,,CLR,0.00,158.00,VWS V14.01,2013-09-19 15:29:00,
2013-09-19 10:34:00,75.3,70.8,29.64,SE,129,2.0,8.0,86,0.00,,CLR,0.00,127.00,VWS V14.01,2013-09-19 15:34:00,
2013-09-19 10:39:00,75.5,71.0,29.64,SE,146,3.0,14.0,86,0.00,,CLR,0.00,123.00,VWS V14.01,2013-09-19 15:39:00,
2013-09-19 10:44:00,75.7,71.2,29.64,SE,124,0.0,14.0,86,0.00,,CLR,0.00,132.00,VWS V14.01,2013-09-19 15:44:00,
2013-09-19 10:50:00,75.9,70.7,29.63,SE,124,0.0,14.0,84,0.00,,CLR,0.00,158.00,VWS V14.01,2013-09-19 15:50:00,
2013-09-19 10:55:00,76.1,71.3,29.63,ESE,113,4.0,14.0,85,0.00,,CLR,0.00,121.00,VWS V14.01,2013-09-19 15:55:00,
2013-09-19 11:00:00,76.4,71.6,29.63,SSW,194,4.0,4.0,85,0.00,,CLR,0.00,207.00,VWS V14.01,2013-09-19 16:00:00,
2013-09-19 11:05:00,76.8,71.2,29.62,South,175,6.0,13.0,83,0.00,,CLR,0.00,171.00,VWS V14.01,2013-09-19 16:05:00,
2013-09-19 11:10:00,77.3,71.7,29.63,SE,138,4.0,13.0,83,0.00,,CLR,0.00,171.00,VWS V14.01,2013-09-19 16:10:00,
2013-09-19 11:15:00,77.6,71.7,29.63,South,185,11.0,13.0,82,0.00,,CLR,0.00,213.00,VWS V14.01,2013-09-19 16:15:00,
2013-09-19 11:20:00,77.8,71.5,29.63,SSE,157,0.0,13.0,81,0.00,,CLR,0.00,269.00,VWS V14.01,2013-09-19 16:20:00,
2013-09-19 11:25:00,77.9,71.6,29.64,South,171,1.0,14.0,81,0.00,,CLR,0.00,313.00,VWS V14.01,2013-09-19 16:25:00,
2013-09-19 11:30:00,78.2,71.9,29.64,SE,138,0.0,2.0,81,0.00,,CLR,0.00,362.00,VWS V14.01,2013-09-19 16:30:00,
2013-09-19 11:35:00,78.3,72.0,29.64,SE,126,1.0,14.0,81,0.00,,CLR,0.00,383.00,VWS V14.01,2013-09-19 16:35:00,
2013-09-19 11:40:00,78.4,71.7,29.63,SSE,155,1.0,14.0,80,0.00,,BKN024,0.00,272.00,VWS V14.01,2013-09-19 16:40:00,
2013-09-19 11:45:00,78.3,72.0,29.64,SSE,165,3.0,14.0,81,0.00,,BKN024,0.00,239.00,VWS V14.01,2013-09-19 16:45:00,
2013-09-19 11:50:00,78.1,71.4,29.64,South,170,3.0,14.0,80,0.00,,BKN024,0.00,239.00,VWS V14.01,2013-09-19 16:50:00,
2013-09-19 11:55:00,78.0,71.7,29.64,SE,145,3.0,14.0,81,0.00,,BKN024,0.00,213.00,VWS V14.01,2013-09-19 16:55:00,
2013-09-19 12:00:00,77.9,71.2,29.65,SSW,201,5.0,5.0,80,0.00,,BKN024,0.00,93.00,VWS V14.01,2013-09-19 17:00:00,
2013-09-19 12:05:00,77.8,71.1,29.66,SSE,167,11.0,15.0,80,0.00,,BKN024,0.00,79.00,VWS V14.01,2013-09-19 17:05:00,
2013-09-19 12:10:00,77.8,71.5,29.66,SW,222,17.0,17.0,81,0.00,,BKN024,0.00,178.00,VWS V14.01,2013-09-19 17:10:00,
2013-09-19 12:15:00,77.8,71.1,29.66,South,191,6.0,17.0,80,0.00,,BKN024,0.00,132.00,VWS V14.01,2013-09-19 17:15:00,
2013-09-19 12:20:00,77.7,71.0,29.66,SSW,194,6.0,17.0,80,0.00,,BKN024,0.00,130.00,VWS V14.01,2013-09-19 17:20:00,
2013-09-19 12:25:00,77.6,70.9,29.66,South,188,5.0,17.0,80,0.00,,BKN024,0.00,137.00,VWS V14.01,2013-09-19 17:25:00,
2013-09-19 12:30:00,77.6,70.9,29.66,South,184,8.0,9.0,80,0.00,,BKN024,0.00,153.00,VWS V14.01,2013-09-19 17:30:00,
2013-09-19 12:35:00,77.6,70.9,29.66,SSW,193,6.0,12.0,80,0.00,,BKN024,0.00,250.00,VWS V14.01,2013-09-19 17:35:00,
2013-09-19 12:40:00,77.7,71.4,29.66,SW,219,5.0,12.0,81,0.00,,BKN024,0.00,127.00,VWS V14.01,2013-09-19 17:40:00,
2013-09-19 12:45:00,77.6,71.3,29.66,SSW,200,5.0,12.0,81,0.00,,BKN024,0.00,63.00,VWS V14.01,2013-09-19 17:45:00,
2013-09-19 12:50:00,77.4,71.1,29.66,SW,219,4.0,12.0,81,0.00,,BKN024,0.00,23.00,VWS V14.01,2013-09-19 17:50:00,
2013-09-19 12:55:00,77.2,70.9,29.66,SSW,203,4.0,12.0,81,0.00,,BKN024,0.00,19.00,VWS V14.01,2013-09-19 17:55:00,
2013-09-19 13:00:00,77.0,71.1,29.66,SW,219,2.0,5.0,82,0.00,,OVC047,0.00,28.00,VWS V14.01,2013-09-19 18:00:00,
2013-09-19 13:05:00,76.9,71.0,29.67,WSW,239,3.0,6.0,82,0.00,,OVC047,0.00,11.00,VWS V14.01,2013-09-19 18:05:00,
2013-09-19 13:10:00,76.7,70.8,29.67,SW,232,1.0,6.0,82,0.00,,OVC047,0.00,5.00,VWS V14.01,2013-09-19 18:10:00,
2013-09-19 13:15:00,76.2,68.8,29.68,WNW,286,19.0,21.0,78,0.00,,OVC047,0.00,0.00,VWS V14.01,2013-09-19 18:15:00,
2013-09-19 13:20:00,72.2,66.1,29.69,NW,310,6.0,22.0,81,0.02,,,0.02,0.00,VWS V14.01,2013-09-19 18:20:00,
2013-09-19 13:25:00,69.7,65.0,29.70,West,278,12.0,22.0,85,0.04,,,0.04,0.00,VWS V14.01,2013-09-19 18:25:00,
2013-09-19 13:30:00,68.5,64.5,29.70,NW,317,7.0,12.0,87,0.10,,,0.10,0.00,VWS V14.01,2013-09-19 18:30:00,
2013-09-19 13:35:00,67.8,64.1,29.69,WNW,301,4.0,12.0,88,0.14,,,0.14,0.00,VWS V14.01,2013-09-19 18:35:00,
2013-09-19 13:40:00,67.4,64.1,29.68,WNW,293,1.0,12.0,89,0.20,,,0.20,0.00,VWS V14.01,2013-09-19 18:40:00,
2013-09-19 13:45:00,67.2,63.8,29.67,NW,311,3.0,12.0,89,0.22,,,0.22,0.00,VWS V14.01,2013-09-19 18:45:00,
2013-09-19 13:50:00,67.2,63.8,29.66,NW,311,0.0,12.0,89,0.24,,,0.24,5.00,VWS V14.01,2013-09-19 18:50:00,
2013-09-19 13:55:00,67.2,63.5,29.65,NW,311,0.0,12.0,88,0.25,,,0.25,12.00,VWS V14.01,2013-09-19 18:55:00,
2013-09-19 14:00:00,67.2,63.5,29.66,NW,311,0.0,0.0,88,0.25,,,0.25,19.00,VWS V14.01,2013-09-19 19:00:00,
2013-09-19 14:05:00,67.2,63.5,29.66,NW,311,0.0,0.0,88,0.26,,,0.26,28.00,VWS V14.01,2013-09-19 19:05:00,
2013-09-19 14:10:00,67.2,63.5,29.65,NW,311,0.0,0.0,88,0.26,,,0.26,32.00,VWS V14.01,2013-09-19 19:10:00,
2013-09-19 14:15:00,67.2,63.5,29.65,NW,311,0.0,0.0,88,0.26,,,0.26,28.00,VWS V14.01,2013-09-19 19:15:00,
2013-09-19 14:20:00,67.3,63.6,29.63,NW,311,0.0,0.0,88,0.26,,BKN080,0.26,28.00,VWS V14.01,2013-09-19 19:20:00,
2013-09-19 14:25:00,67.3,63.6,29.63,NW,311,0.0,1.0,88,0.26,,BKN080,0.26,18.00,VWS V14.01,2013-09-19 19:25:00,
2013-09-19 14:30:00,67.3,63.6,29.62,NW,311,0.0,1.0,88,0.20,,BKN080,0.27,21.00,VWS V14.01,2013-09-19 19:30:00,
2013-09-19 14:35:00,67.3,63.6,29.61,NW,311,0.0,1.0,88,0.24,,BKN080,0.31,53.00,VWS V14.01,2013-09-19 19:35:00,
2013-09-19 14:40:00,67.4,63.4,29.61,NW,311,0.0,1.0,87,0.25,,BKN080,0.32,113.00,VWS V14.01,2013-09-19 19:40:00,
2013-09-19 14:45:00,67.7,63.7,29.62,NW,311,1.0,1.0,87,0.25,,BKN080,0.32,304.00,VWS V14.01,2013-09-19 19:45:00,
2013-09-19 14:50:00,68.1,64.1,29.64,NW,311,0.0,1.0,87,0.25,,BKN080,0.32,383.00,VWS V14.01,2013-09-19 19:50:00,
2013-09-19 14:55:00,68.7,64.7,29.63,SSW,200,1.0,5.0,87,0.25,,BKN080,0.32,320.00,VWS V14.01,2013-09-19 19:55:00,
2013-09-19 15:00:00,69.0,65.0,29.63,South,190,0.0,3.0,87,0.07,,SCT100,0.32,482.00,VWS V14.01,2013-09-19 20:00:00,
2013-09-19 15:05:00,69.0,65.0,29.63,South,171,0.0,5.0,87,0.07,,SCT100,0.32,267.00,VWS V14.01,2013-09-19 20:05:00,
2013-09-19 15:10:00,69.0,65.0,29.64,South,171,0.0,5.0,87,0.07,,SCT100,0.32,181.00,VWS V14.01,2013-09-19 20:10:00,
2013-09-19 15:15:00,69.1,65.1,29.64,South,171,0.0,5.0,87,0.07,,SCT100,0.32,179.00,VWS V14.01,2013-09-19 20:15:00,
2013-09-19 15:20:00,69.0,65.3,29.64,South,171,0.0,5.0,88,0.07,,BKN110,0.32,258.00,VWS V14.01,2013-09-19 20:20:00,
2013-09-19 15:25:00,69.2,65.2,29.64,South,171,1.0,5.0,87,0.07,,BKN110,0.32,334.00,VWS V14.01,2013-09-19 20:25:00,
2013-09-19 15:30:00,69.9,65.9,29.64,SSW,205,3.0,7.0,87,0.06,,BKN110,0.32,759.00,VWS V14.01,2013-09-19 20:30:00,
2013-09-19 15:35:00,69.8,66.4,29.64,SW,215,4.0,7.0,89,0.06,,BKN110,0.32,213.00,VWS V14.01,2013-09-19 20:35:00,
2013-09-19 15:40:00,69.8,66.4,29.64,SSW,197,3.0,7.0,89,0.06,,BKN110,0.32,179.00,VWS V14.01,2013-09-19 20:40:00,
2013-09-19 15:45:00,69.9,66.5,29.65,SSW,201,1.0,7.0,89,0.06,,BKN110,0.32,116.00,VWS V14.01,2013-09-19 20:45:00,
2013-09-19 15:50:00,70.1,66.7,29.64,South,190,1.0,7.0,89,0.06,,BKN110,0.32,181.00,VWS V14.01,2013-09-19 20:50:00,
2013-09-19 15:55:00,70.3,66.9,29.64,SSE,163,3.0,7.0,89,0.06,,BKN110,0.32,158.00,VWS V14.01,2013-09-19 20:55:00,
2013-09-19 16:00:00,70.4,67.0,29.64,SSW,202,3.0,7.0,89,0.00,,OVC047,0.32,213.00,VWS V14.01,2013-09-19 21:00:00,
2013-09-19 16:05:00,70.7,67.0,29.64,SSW,208,3.0,7.0,88,0.00,,OVC047,0.32,167.00,VWS V14.01,2013-09-19 21:05:00,
2013-09-19 16:10:00,70.9,67.2,29.64,SSW,211,4.0,7.0,88,0.00,,OVC047,0.32,102.00,VWS V14.01,2013-09-19 21:10:00,
2013-09-19 16:15:00,70.9,67.2,29.64,SW,232,3.0,7.0,88,0.00,,OVC047,0.32,148.00,VWS V14.01,2013-09-19 21:15:00,
2013-09-19 16:20:00,70.8,66.7,29.64,West,276,6.0,8.0,87,0.00,,OVC047,0.32,102.00,VWS V14.01,2013-09-19 21:20:00,
2013-09-19 16:25:00,70.8,66.7,29.63,SW,229,3.0,8.0,87,0.00,,OVC047,0.32,49.00,VWS V14.01,2013-09-19 21:25:00,
2013-09-19 16:30:00,70.8,66.7,29.63,SW,236,2.0,3.0,87,0.00,,OVC047,0.32,97.00,VWS V14.01,2013-09-19 21:30:00,
2013-09-19 16:35:00,70.8,66.7,29.62,WSW,248,2.0,7.0,87,0.00,,OVC047,0.32,197.00,VWS V14.01,2013-09-19 21:35:00,
2013-09-19 16:40:00,71.0,66.9,29.62,West,281,1.0,7.0,87,0.00,,OVC060,0.32,113.00,VWS V14.01,2013-09-19 21:40:00,
2013-09-19 16:45:00,71.0,66.9,29.62,WSW,252,4.0,8.0,87,0.00,,OVC060,0.32,84.00,VWS V14.01,2013-09-19 21:45:00,
2013-09-19 16:50:00,70.9,66.5,29.62,WNW,300,5.0,8.0,86,0.00,,OVC060,0.32,76.00,VWS V14.01,2013-09-19 21:50:00,
2013-09-19 16:55:00,70.8,66.4,29.61,WNW,288,4.0,8.0,86,0.00,,OVC060,0.32,65.00,VWS V14.01,2013-09-19 21:55:00,
2013-09-19 17:00:00,70.7,66.3,29.62,West,263,6.0,8.0,86,0.00,,OVC060,0.32,28.00,VWS V14.01,2013-09-19 22:00:00,
2013-09-19 17:05:00,70.6,66.2,29.62,West,280,5.0,8.0,86,0.00,,OVC060,0.32,39.00,VWS V14.01,2013-09-19 22:05:00,
2013-09-19 17:10:00,70.5,66.1,29.62,West,259,3.0,8.0,86,0.00,,OVC060,0.32,26.00,VWS V14.01,2013-09-19 22:10:00,
2013-09-19 17:15:00,70.4,66.3,29.62,West,263,1.0,8.0,87,0.00,,OVC060,0.32,40.00,VWS V14.01,2013-09-19 22:15:00,
2013-09-19 17:20:00,70.3,66.2,29.62,WSW,241,4.0,8.0,87,0.00,,OVC031,0.32,42.00,VWS V14.01,2013-09-19 22:20:00,
2013-09-19 17:25:00,70.3,66.2,29.62,WSW,246,2.0,8.0,87,0.00,,OVC031,0.32,49.00,VWS V14.01,2013-09-19 22:25:00,
2013-09-19 17:30:00,70.3,66.6,29.63,WSW,247,2.0,3.0,88,0.00,,OVC031,0.32,35.00,VWS V14.01,2013-09-19 22:30:00,
2013-09-19 17:35:00,70.2,66.5,29.63,WSW,254,3.0,5.0,88,0.00,,OVC031,0.32,26.00,VWS V14.01,2013-09-19 22:35:00,
2013-09-19 17:40:00,70.2,66.2,29.64,WSW,242,6.0,7.0,87,0.01,,OVC031,0.33,25.00,VWS V14.01,2013-09-19 22:40:00,
2013-09-19 17:45:00,70.1,66.1,29.64,West,277,2.0,7.0,87,0.01,,OVC031,0.33,14.00,VWS V14.01,2013-09-19 22:45:00,
2013-09-19 17:50:00,70.1,66.4,29.64,West,277,3.0,7.0,88,0.01,,OVC031,0.33,19.00,VWS V14.01,2013-09-19 22:50:00,
2013-09-19 17:55:00,69.9,66.2,29.63,West,277,1.0,7.0,88,0.01,,OVC031,0.33,39.00,VWS V14.01,2013-09-19 22:55:00,
2013-09-19 18:00:00,69.8,66.1,29.63,West,277,1.0,2.0,88,0.01,,OVC031,0.33,28.00,VWS V14.01,2013-09-19 23:00:00,
2013-09-19 18:05:00,69.7,66.3,29.63,West,277,0.0,3.0,89,0.01,,OVC031,0.33,19.00,VWS V14.01,2013-09-19 23:05:00,
2013-09-19 18:10:00,69.7,66.3,29.62,West,277,0.0,3.0,89,0.01,,OVC031,0.33,26.00,VWS V14.01,2013-09-19 23:10:00,
2013-09-19 18:15:00,69.5,66.1,29.62,West,277,1.0,3.0,89,0.01,,OVC031,0.33,19.00,VWS V14.01,2013-09-19 23:15:00,
2013-09-19 18:20:00,69.5,66.1,29.63,West,277,1.0,3.0,89,0.01,,BKN037,0.33,21.00,VWS V14.01,2013-09-19 23:20:00,
2013-09-19 18:25:00,69.4,66.0,29.62,West,277,1.0,3.0,89,0.01,,BKN037,0.33,33.00,VWS V14.01,2013-09-19 23:25:00,
2013-09-19 18:30:00,69.5,66.1,29.62,West,277,3.0,3.0,89,0.01,,BKN037,0.33,40.00,VWS V14.01,2013-09-19 23:30:00,
2013-09-19 18:35:00,69.5,66.1,29.61,West,277,1.0,3.0,89,0.01,,BKN037,0.33,26.00,VWS V14.01,2013-09-19 23:35:00,
2013-09-19 18:40:00,69.5,65.8,29.62,West,277,0.0,3.0,88,0.01,,BKN037,0.33,9.00,VWS V14.01,2013-09-19 23:40:00,
2013-09-19 18:45:00,69.4,65.7,29.62,West,277,0.0,3.0,88,0.01,,BKN037,0.33,5.00,VWS V14.01,2013-09-19 23:45:00,
2013-09-19 18:50:00,69.3,65.9,29.62,West,277,0.0,3.0,89,0.01,,BKN037,0.33,5.00,VWS V14.01,2013-09-19 23:50:00,
2013-09-19 18:55:00,69.1,65.7,29.63,West,277,1.0,3.0,89,0.01,,BKN037,0.33,0.00,VWS V14.01,2013-09-19 23:55:00,
2013-09-19 19:00:00,68.9,65.5,29.64,South,182,2.0,4.0,89,0.00,,BKN065,0.33,0.00,VWS V14.01,2013-09-20 00:00:00,
2013-09-19 19:05:00,68.7,65.3,29.64,South,182,0.0,4.0,89,0.00,,BKN065,0.33,0.00,VWS V14.01,2013-09-20 00:05:00,
2013-09-19 19:10:00,68.6,65.2,29.64,South,182,0.0,4.0,89,0.00,,BKN065,0.33,0.00,VWS V14.01,2013-09-20 00:10:00,
2013-09-19 19:15:00,68.4,65.0,29.64,South,182,0.0,4.0,89,0.00,,BKN065,0.33,0.00,VWS V14.01,2013-09-20 00:15:00,
2013-09-19 19:21:00,68.3,64.9,29.64,South,182,0.0,4.0,89,0.00,,BKN065,0.33,0.00,VWS V14.01,2013-09-20 00:21:00,
2013-09-19 19:26:00,68.3,64.9,29.64,South,182,0.0,4.0,89,0.00,,BKN065,0.33,0.00,VWS V14.01,2013-09-20 00:26:00,
2013-09-19 19:31:00,68.0,64.6,29.65,WNW,283,1.0,4.0,89,0.00,,BKN065,0.33,0.00,VWS V14.01,2013-09-20 00:31:00,
2013-09-19 19:36:00,67.9,64.5,29.65,WNW,283,0.0,4.0,89,0.00,,BKN065,0.33,0.00,VWS V14.01,2013-09-20 00:36:00,
2013-09-19 19:41:00,67.8,64.4,29.65,WSW,238,2.0,4.0,89,0.00,,BKN065,0.33,0.00,VWS V14.01,2013-09-20 00:41:00,
2013-09-19 19:46:00,67.7,64.3,29.66,WSW,241,1.0,4.0,89,0.00,,BKN065,0.33,0.00,VWS V14.01,2013-09-20 00:46:00,
2013-09-19 19:51:00,67.6,64.2,29.66,WSW,241,3.0,4.0,89,0.00,,BKN065,0.33,0.00,VWS V14.01,2013-09-20 00:51:00,
2013-09-19 19:56:00,67.6,64.2,29.65,WSW,241,3.0,4.0,89,0.00,,BKN065,0.33,0.00,VWS V14.01,2013-09-20 00:56:00,
2013-09-19 20:01:00,67.6,64.2,29.66,WSW,241,1.0,2.0,89,0.00,,BKN065,0.33,0.00,VWS V14.01,2013-09-20 01:01:00,
2013-09-19 20:06:00,67.5,64.2,29.66,WSW,241,0.0,2.0,89,0.00,,BKN065,0.33,0.00,VWS V14.01,2013-09-20 01:06:00,
2013-09-19 20:11:00,67.4,64.1,29.66,WSW,241,1.0,3.0,89,0.00,,BKN065,0.33,0.00,VWS V14.01,2013-09-20 01:11:00,
2013-09-19 20:16:00,67.4,64.1,29.65,WSW,241,0.0,3.0,89,0.00,,BKN065,0.33,0.00,VWS V14.01,2013-09-20 01:16:00,
2013-09-19 20:21:00,67.3,64.0,29.66,WSW,241,0.0,3.0,89,0.00,,CLR,0.33,0.00,VWS V14.01,2013-09-20 01:21:00,
2013-09-19 20:26:00,67.2,63.8,29.66,WSW,241,0.0,3.0,89,0.00,,CLR,0.33,0.00,VWS V14.01,2013-09-20 01:26:00,
2013-09-19 20:31:00,67.2,63.8,29.66,WSW,241,1.0,1.0,89,0.00,,CLR,0.33,0.00,VWS V14.01,2013-09-20 01:31:00,
2013-09-19 20:36:00,67.1,63.8,29.66,WSW,241,1.0,3.0,89,0.00,,CLR,0.33,0.00,VWS V14.01,2013-09-20 01:36:00,
2013-09-19 20:41:00,67.0,63.7,29.66,WSW,241,0.0,3.0,89,0.00,,CLR,0.33,0.00,VWS V14.01,2013-09-20 01:41:00,
2013-09-19 20:46:00,67.0,63.7,29.66,WSW,241,0.0,3.0,89,0.00,,CLR,0.33,0.00,VWS V14.01,2013-09-20 01:46:00,
2013-09-19 20:51:00,66.9,63.6,29.66,WSW,241,0.0,3.0,89,0.00,,CLR,0.33,0.00,VWS V14.01,2013-09-20 01:51:00,
2013-09-19 20:56:00,66.8,63.5,29.66,WSW,241,0.0,3.0,89,0.00,,CLR,0.33,0.00,VWS V14.01,2013-09-20 01:56:00,
2013-09-19 21:01:00,66.8,63.5,29.65,WSW,241,0.0,0.0,89,0.00,,CLR,0.33,0.00,VWS V14.01,2013-09-20 02:01:00,
2013-09-19 21:06:00,66.8,63.5,29.65,WSW,241,0.0,0.0,89,0.00,,CLR,0.33,0.00,VWS V14.01,2013-09-20 02:06:00,
2013-09-19 21:11:00,66.7,63.4,29.65,WSW,241,0.0,0.0,89,0.00,,CLR,0.33,0.00,VWS V14.01,2013-09-20 02:11:00,
2013-09-19 21:16:00,66.7,63.0,29.65,WSW,241,0.0,2.0,88,0.00,,CLR,0.33,0.00,VWS V14.01,2013-09-20 02:16:00,
2013-09-19 21:21:00,66.7,63.0,29.64,WSW,241,0.0,2.0,88,0.00,,CLR,0.33,0.00,VWS V14.01,2013-09-20 02:21:00,
2013-09-19 21:26:00,66.6,62.9,29.64,WSW,241,0.0,2.0,88,0.00,,CLR,0.33,0.00,VWS V14.01,2013-09-20 02:26:00,
2013-09-19 21:31:00,66.7,63.0,29.64,WSW,241,0.0,1.0,88,0.00,,CLR,0.33,0.00,VWS V14.01,2013-09-20 02:31:00,
2013-09-19 21:36:00,66.6,62.9,29.64,WSW,241,0.0,1.0,88,0.00,,CLR,0.33,0.00,VWS V14.01,2013-09-20 02:36:00,
2013-09-19 21:41:00,66.6,62.9,29.64,WSW,241,0.0,1.0,88,0.00,,CLR,0.33,0.00,VWS V14.01,2013-09-20 02:41:00,
2013-09-19 21:46:00,66.6,62.9,29.64,WSW,241,0.0,2.0,88,0.00,,CLR,0.33,0.00,VWS V14.01,2013-09-20 02:46:00,
2013-09-19 21:51:00,66.5,62.8,29.63,WSW,241,0.0,2.0,88,0.00,,CLR,0.33,0.00,VWS V14.01,2013-09-20 02:51:00,
2013-09-19 21:56:00,66.6,62.9,29.63,WSW,241,0.0,2.0,88,0.00,,CLR,0.33,0.00,VWS V14.01,2013-09-20 02:56:00,
2013-09-19 22:01:00,66.4,62.7,29.63,WSW,241,0.0,0.0,88,0.00,,CLR,0.33,0.00,VWS V14.01,2013-09-20 03:01:00,
2013-09-19 22:06:00,66.2,62.5,29.64,WSW,241,0.0,0.0,88,0.00,,CLR,0.33,0.00,VWS V14.01,2013-09-20 03:06:00,
2013-09-19 22:11:00,66.1,62.5,29.64,WSW,241,0.0,0.0,88,0.00,,CLR,0.33,0.00,VWS V14.01,2013-09-20 03:11:00,
2013-09-19 22:16:00,66.0,62.3,29.65,WSW,241,0.0,0.0,88,0.00,,CLR,0.33,0.00,VWS V14.01,2013-09-20 03:16:00,
2013-09-19 22:21:00,65.8,62.2,29.65,WSW,241,1.0,1.0,88,0.00,,CLR,0.33,0.00,VWS V14.01,2013-09-20 03:21:00,
2013-09-19 22:26:00,65.8,62.2,29.65,WSW,241,0.0,1.0,88,0.00,,CLR,0.33,0.00,VWS V14.01,2013-09-20 03:26:00,
2013-09-19 22:31:00,66.2,62.2,29.65,WSW,241,1.0,2.0,87,0.00,,CLR,0.33,0.00,VWS V14.01,2013-09-20 03:31:00,
2013-09-19 22:36:00,66.3,62.3,29.65,WSW,241,3.0,4.0,87,0.00,,CLR,0.33,0.00,VWS V14.01,2013-09-20 03:36:00,
2013-09-19 22:41:00,66.4,62.4,29.66,WSW,241,2.0,4.0,87,0.00,,CLR,0.33,0.00,VWS V14.01,2013-09-20 03:41:00,
2013-09-19 22:46:00,66.5,62.8,29.66,WSW,241,0.0,4.0,88,0.00,,CLR,0.33,0.00,VWS V14.01,2013-09-20 03:46:00,
2013-09-19 22:51:00,66.5,62.8,29.66,WSW,241,1.0,4.0,88,0.00,,CLR,0.33,0.00,VWS V14.01,2013-09-20 03:51:00,
2013-09-19 22:56:00,66.6,62.9,29.66,WSW,241,2.0,4.0,88,0.00,,CLR,0.33,0.00,VWS V14.01,2013-09-20 03:56:00,
2013-09-19 23:01:00,66.6,62.9,29.66,WSW,241,0.0,1.0,88,0.00,,CLR,0.33,0.00,VWS V14.01,2013-09-20 04:01:00,
2013-09-19 23:06:00,66.6,63.3,29.66,WSW,241,0.0,3.0,89,0.00,,CLR,0.33,0.00,VWS V14.01,2013-09-20 04:06:00,
2013-09-19 23:11:00,66.5,63.2,29.66,WNW,293,1.0,4.0,89,0.00,,CLR,0.33,0.00,VWS V14.01,2013-09-20 04:11:00,
2013-09-19 23:16:00,66.5,63.2,29.66,WNW,283,4.0,4.0,89,0.00,,CLR,0.33,0.00,VWS V14.01,2013-09-20 04:16:00,
2013-09-19 23:21:00,66.4,63.1,29.65,WNW,286,1.0,5.0,89,0.00,,CLR,0.33,0.00,VWS V14.01,2013-09-20 04:21:00,
2013-09-19 23:26:00,66.4,63.1,29.65,WNW,286,2.0,5.0,89,0.00,,CLR,0.33,0.00,VWS V14.01,2013-09-20 04:26:00,
2013-09-19 23:31:00,66.4,63.1,29.66,WNW,286,2.0,3.0,89,0.00,,CLR,0.33,0.00,VWS V14.01,2013-09-20 04:31:00,
2013-09-19 23:36:00,66.5,63.2,29.66,WNW,286,1.0,5.0,89,0.00,,CLR,0.33,0.00,VWS V14.01,2013-09-20 04:36:00,
2013-09-19 23:41:00,66.4,63.1,29.66,WNW,286,0.0,5.0,89,0.00,,CLR,0.33,0.00,VWS V14.01,2013-09-20 04:41:00,
2013-09-19 23:46:00,66.5,63.2,29.66,WNW,286,1.0,5.0,89,0.00,,CLR,0.33,0.00,VWS V14.01,2013-09-20 04:46:00,
2013-09-19 23:51:00,66.4,63.1,29.66,WNW,286,3.0,5.0,89,0.00,,CLR,0.33,0.00,VWS V14.01,2013-09-20 04:51:00,
2013-09-19 23:56:00,66.5,63.2,29.65,WNW,286,0.0,5.0,89,0.00,,CLR,0.33,0.00,VWS V14.01,2013-09-20 04:56:00,